sensor_id;sensor_type;location;lat;lon;timestamp;temperature;humidity
42245;DHT22;27912;51.828;5.688;2023-04-02T00:02:26;6.90;99.90
42245;DHT22;27912;51.828;5.688;2023-04-02T00:07:40;6.90;99.90
42245;DHT22;27912;51.828;5.688;2023-04-02T00:10:38;6.90;99.90
42245;DHT22;27912;51.828;5.688;2023-04-02T00:13:34;6.90;99.90
42245;DHT22;27912;51.828;5.688;2023-04-02T00:16:02;6.90;99.90
42245;DHT22;27912;51.828;5.688;2023-04-02T00:18:28;6.90;99.90
42245;DHT22;27912;51.828;5.688;2023-04-02T00:21:20;6.80;99.90
42245;DHT22;27912;51.828;5.688;2023-04-02T00:23:46;6.90;99.90
42245;DHT22;27912;51.828;5.688;2023-04-02T00:26:22;6.80;99.90
42245;DHT22;27912;51.828;5.688;2023-04-02T00:28:50;6.80;99.90
42245;DHT22;27912;51.828;5.688;2023-04-02T00:31:18;6.80;99.90
42245;DHT22;27912;51.828;5.688;2023-04-02T00:33:45;6.70;99.90
42245;DHT22;27912;51.828;5.688;2023-04-02T00:36:11;6.70;99.90
42245;DHT22;27912;51.828;5.688;2023-04-02T00:38:37;6.60;99.90
42245;DHT22;27912;51.828;5.688;2023-04-02T00:41:06;6.60;99.90
42245;DHT22;27912;51.828;5.688;2023-04-02T00:43:36;6.50;99.90
42245;DHT22;27912;51.828;5.688;2023-04-02T00:46:15;6.50;99.90
42245;DHT22;27912;51.828;5.688;2023-04-02T00:48:43;6.50;99.90
42245;DHT22;27912;51.828;5.688;2023-04-02T00:51:21;6.50;99.90
42245;DHT22;27912;51.828;5.688;2023-04-02T00:53:48;6.50;99.90
42245;DHT22;27912;51.828;5.688;2023-04-02T00:56:43;6.50;99.90
42245;DHT22;27912;51.828;5.688;2023-04-02T00:59:25;6.50;99.90
42245;DHT22;27912;51.828;5.688;2023-04-02T01:02:02;6.50;99.90
42245;DHT22;27912;51.828;5.688;2023-04-02T01:04:55;6.50;99.90
42245;DHT22;27912;51.828;5.688;2023-04-02T01:07:49;6.50;99.90
42245;DHT22;27912;51.828;5.688;2023-04-02T01:10:33;6.50;99.90
42245;DHT22;27912;51.828;5.688;2023-04-02T01:13:26;6.50;99.90
42245;DHT22;27912;51.828;5.688;2023-04-02T01:18:34;6.40;99.90
42245;DHT22;27912;51.828;5.688;2023-04-02T01:24:06;6.40;99.90
42245;DHT22;27912;51.828;5.688;2023-04-02T01:29:13;6.40;99.90
42245;DHT22;27912;51.828;5.688;2023-04-02T01:31:40;6.40;99.90
42245;DHT22;27912;51.828;5.688;2023-04-02T01:34:08;6.40;99.90
42245;DHT22;27912;51.828;5.688;2023-04-02T01:39:34;6.40;99.90
42245;DHT22;27912;51.828;5.688;2023-04-02T01:42:19;6.40;99.90
42245;DHT22;27912;51.828;5.688;2023-04-02T01:44:49;6.30;99.90
42245;DHT22;27912;51.828;5.688;2023-04-02T01:47:18;6.30;99.90
42245;DHT22;27912;51.828;5.688;2023-04-02T01:49:46;6.30;99.90
42245;DHT22;27912;51.828;5.688;2023-04-02T01:52:18;6.30;99.90
42245;DHT22;27912;51.828;5.688;2023-04-02T01:54:51;6.20;99.90
42245;DHT22;27912;51.828;5.688;2023-04-02T01:57:17;6.20;99.90
42245;DHT22;27912;51.828;5.688;2023-04-02T01:59:44;6.20;99.90
42245;DHT22;27912;51.828;5.688;2023-04-02T02:02:11;6.20;99.90
42245;DHT22;27912;51.828;5.688;2023-04-02T02:04:38;6.20;99.90
42245;DHT22;27912;51.828;5.688;2023-04-02T02:07:04;6.20;99.90
42245;DHT22;27912;51.828;5.688;2023-04-02T02:09:33;6.20;99.90
42245;DHT22;27912;51.828;5.688;2023-04-02T02:12:01;6.20;99.90
42245;DHT22;27912;51.828;5.688;2023-04-02T02:14:28;6.10;99.90
42245;DHT22;27912;51.828;5.688;2023-04-02T02:16:56;6.10;99.90
42245;DHT22;27912;51.828;5.688;2023-04-02T02:19:32;6.10;99.90
42245;DHT22;27912;51.828;5.688;2023-04-02T02:22:28;6.00;99.90
42245;DHT22;27912;51.828;5.688;2023-04-02T02:24:54;6.00;99.90
42245;DHT22;27912;51.828;5.688;2023-04-02T02:29:59;6.00;99.90
42245;DHT22;27912;51.828;5.688;2023-04-02T02:32:28;6.00;99.90
42245;DHT22;27912;51.828;5.688;2023-04-02T02:35:11;6.00;99.90
42245;DHT22;27912;51.828;5.688;2023-04-02T02:37:43;6.00;99.90
42245;DHT22;27912;51.828;5.688;2023-04-02T02:40:18;5.90;99.90
42245;DHT22;27912;51.828;5.688;2023-04-02T02:42:57;5.90;99.90
42245;DHT22;27912;51.828;5.688;2023-04-02T02:45:28;5.90;99.90
42245;DHT22;27912;51.828;5.688;2023-04-02T02:47:56;5.90;99.90
42245;DHT22;27912;51.828;5.688;2023-04-02T02:50:25;5.90;99.90
42245;DHT22;27912;51.828;5.688;2023-04-02T02:52:57;5.90;99.90
42245;DHT22;27912;51.828;5.688;2023-04-02T02:55:27;5.90;99.90
42245;DHT22;27912;51.828;5.688;2023-04-02T02:57:59;5.90;99.90
42245;DHT22;27912;51.828;5.688;2023-04-02T03:00:26;5.90;99.90
42245;DHT22;27912;51.828;5.688;2023-04-02T03:02:53;5.90;99.90
42245;DHT22;27912;51.828;5.688;2023-04-02T03:05:23;5.90;99.90
42245;DHT22;27912;51.828;5.688;2023-04-02T03:07:50;5.90;99.90
42245;DHT22;27912;51.828;5.688;2023-04-02T03:13:40;5.90;99.90
42245;DHT22;27912;51.828;5.688;2023-04-02T03:16:33;5.90;99.90
42245;DHT22;27912;51.828;5.688;2023-04-02T03:21:47;5.80;99.90
42245;DHT22;27912;51.828;5.688;2023-04-02T03:24:28;5.90;99.90
42245;DHT22;27912;51.828;5.688;2023-04-02T03:29:38;5.80;99.90
42245;DHT22;27912;51.828;5.688;2023-04-02T03:34:41;5.80;99.90
42245;DHT22;27912;51.828;5.688;2023-04-02T03:37:37;5.70;99.90
42245;DHT22;27912;51.828;5.688;2023-04-02T03:40:20;5.60;99.90
42245;DHT22;27912;51.828;5.688;2023-04-02T03:42:53;5.60;99.90
42245;DHT22;27912;51.828;5.688;2023-04-02T03:45:26;5.60;99.90
42245;DHT22;27912;51.828;5.688;2023-04-02T03:48:02;5.60;99.90
42245;DHT22;27912;51.828;5.688;2023-04-02T03:50:53;5.60;99.90
42245;DHT22;27912;51.828;5.688;2023-04-02T03:53:24;5.50;99.90
42245;DHT22;27912;51.828;5.688;2023-04-02T03:55:51;5.50;99.90
42245;DHT22;27912;51.828;5.688;2023-04-02T03:58:44;5.40;99.90
42245;DHT22;27912;51.828;5.688;2023-04-02T04:01:36;5.40;99.90
42245;DHT22;27912;51.828;5.688;2023-04-02T04:04:12;5.40;99.90
42245;DHT22;27912;51.828;5.688;2023-04-02T04:06:41;5.30;99.90
42245;DHT22;27912;51.828;5.688;2023-04-02T04:09:34;5.30;99.90
42245;DHT22;27912;51.828;5.688;2023-04-02T04:14:58;5.30;99.90
42245;DHT22;27912;51.828;5.688;2023-04-02T04:20:21;5.30;99.90
42245;DHT22;27912;51.828;5.688;2023-04-02T04:22:49;5.30;99.90
42245;DHT22;27912;51.828;5.688;2023-04-02T04:25:29;5.30;99.90
42245;DHT22;27912;51.828;5.688;2023-04-02T04:33:33;5.30;99.90
42245;DHT22;27912;51.828;5.688;2023-04-02T04:36:05;5.30;99.90
42245;DHT22;27912;51.828;5.688;2023-04-02T04:38:41;5.30;99.90
42245;DHT22;27912;51.828;5.688;2023-04-02T04:41:16;5.30;99.90
42245;DHT22;27912;51.828;5.688;2023-04-02T04:43:50;5.20;99.90
42245;DHT22;27912;51.828;5.688;2023-04-02T04:46:21;5.20;99.90
42245;DHT22;27912;51.828;5.688;2023-04-02T04:51:41;5.20;99.90
42245;DHT22;27912;51.828;5.688;2023-04-02T04:54:11;5.10;99.90
42245;DHT22;27912;51.828;5.688;2023-04-02T04:56:38;5.10;99.90
42245;DHT22;27912;51.828;5.688;2023-04-02T04:59:13;5.10;99.90
42245;DHT22;27912;51.828;5.688;2023-04-02T05:04:56;5.10;99.90
42245;DHT22;27912;51.828;5.688;2023-04-02T05:07:16;5.00;99.90
42245;DHT22;27912;51.828;5.688;2023-04-02T05:09:52;5.00;99.90
42245;DHT22;27912;51.828;5.688;2023-04-02T05:12:40;5.00;99.90
42245;DHT22;27912;51.828;5.688;2023-04-02T05:15:26;5.00;99.90
42245;DHT22;27912;51.828;5.688;2023-04-02T05:18:13;5.00;99.90
42245;DHT22;27912;51.828;5.688;2023-04-02T05:20:50;4.90;99.90
42245;DHT22;27912;51.828;5.688;2023-04-02T05:23:30;4.90;99.90
42245;DHT22;27912;51.828;5.688;2023-04-02T05:31:09;4.80;99.90
42245;DHT22;27912;51.828;5.688;2023-04-02T05:33:36;4.80;99.90
42245;DHT22;27912;51.828;5.688;2023-04-02T05:36:08;4.80;99.90
42245;DHT22;27912;51.828;5.688;2023-04-02T05:38:38;4.80;99.90
42245;DHT22;27912;51.828;5.688;2023-04-02T05:43:33;4.70;99.90
42245;DHT22;27912;51.828;5.688;2023-04-02T05:46:06;4.60;99.90
42245;DHT22;27912;51.828;5.688;2023-04-02T05:48:39;4.60;99.90
42245;DHT22;27912;51.828;5.688;2023-04-02T05:51:14;4.50;99.90
42245;DHT22;27912;51.828;5.688;2023-04-02T05:53:58;4.50;99.90
42245;DHT22;27912;51.828;5.688;2023-04-02T05:56:35;4.50;99.90
42245;DHT22;27912;51.828;5.688;2023-04-02T05:59:15;4.40;99.90
42245;DHT22;27912;51.828;5.688;2023-04-02T06:01:57;4.40;99.90
42245;DHT22;27912;51.828;5.688;2023-04-02T06:04:39;4.40;99.90
42245;DHT22;27912;51.828;5.688;2023-04-02T06:07:11;4.40;99.90
42245;DHT22;27912;51.828;5.688;2023-04-02T06:12:35;4.40;99.90
42245;DHT22;27912;51.828;5.688;2023-04-02T06:15:03;4.40;99.90
42245;DHT22;27912;51.828;5.688;2023-04-02T06:17:41;4.40;99.90
42245;DHT22;27912;51.828;5.688;2023-04-02T06:20:12;4.40;99.90
42245;DHT22;27912;51.828;5.688;2023-04-02T06:22:42;4.40;99.90
42245;DHT22;27912;51.828;5.688;2023-04-02T06:25:18;4.40;99.90
42245;DHT22;27912;51.828;5.688;2023-04-02T06:27:46;4.40;99.90
42245;DHT22;27912;51.828;5.688;2023-04-02T06:30:18;4.40;99.90
42245;DHT22;27912;51.828;5.688;2023-04-02T06:32:44;4.40;99.90
42245;DHT22;27912;51.828;5.688;2023-04-02T06:35:13;4.40;99.90
42245;DHT22;27912;51.828;5.688;2023-04-02T06:37:42;4.30;99.90
42245;DHT22;27912;51.828;5.688;2023-04-02T06:40:39;4.40;99.90
42245;DHT22;27912;51.828;5.688;2023-04-02T06:43:25;4.40;99.90
42245;DHT22;27912;51.828;5.688;2023-04-02T06:45:54;4.40;99.90
42245;DHT22;27912;51.828;5.688;2023-04-02T06:48:22;4.40;99.90
42245;DHT22;27912;51.828;5.688;2023-04-02T06:50:57;4.40;99.90
42245;DHT22;27912;51.828;5.688;2023-04-02T06:53:32;4.40;99.90
42245;DHT22;27912;51.828;5.688;2023-04-02T06:59:05;4.50;99.90
42245;DHT22;27912;51.828;5.688;2023-04-02T07:01:36;4.50;99.90
42245;DHT22;27912;51.828;5.688;2023-04-02T07:04:02;4.50;99.90
42245;DHT22;27912;51.828;5.688;2023-04-02T07:06:28;4.40;99.90
42245;DHT22;27912;51.828;5.688;2023-04-02T07:08:54;4.30;99.90
42245;DHT22;27912;51.828;5.688;2023-04-02T07:11:20;4.30;99.90
42245;DHT22;27912;51.828;5.688;2023-04-02T07:13:49;4.30;99.90
42245;DHT22;27912;51.828;5.688;2023-04-02T07:16:18;4.20;99.90
42245;DHT22;27912;51.828;5.688;2023-04-02T07:18:44;4.20;99.90
42245;DHT22;27912;51.828;5.688;2023-04-02T07:21:10;4.20;99.90
42245;DHT22;27912;51.828;5.688;2023-04-02T07:23:36;4.10;99.90
42245;DHT22;27912;51.828;5.688;2023-04-02T07:26:06;4.10;99.90
42245;DHT22;27912;51.828;5.688;2023-04-02T07:28:32;4.20;99.90
42245;DHT22;27912;51.828;5.688;2023-04-02T07:30:58;4.20;99.90
42245;DHT22;27912;51.828;5.688;2023-04-02T07:33:27;4.20;99.90
42245;DHT22;27912;51.828;5.688;2023-04-02T07:35:54;4.20;99.90
42245;DHT22;27912;51.828;5.688;2023-04-02T07:38:20;4.20;99.90
42245;DHT22;27912;51.828;5.688;2023-04-02T07:40:46;4.20;99.90
42245;DHT22;27912;51.828;5.688;2023-04-02T07:43:11;4.30;99.90
42245;DHT22;27912;51.828;5.688;2023-04-02T07:45:37;4.30;99.90
42245;DHT22;27912;51.828;5.688;2023-04-02T07:48:07;4.30;99.90
42245;DHT22;27912;51.828;5.688;2023-04-02T07:50:33;4.40;99.90
42245;DHT22;27912;51.828;5.688;2023-04-02T07:53:00;4.40;99.90
42245;DHT22;27912;51.828;5.688;2023-04-02T07:55:25;4.40;99.90
42245;DHT22;27912;51.828;5.688;2023-04-02T07:57:53;4.40;99.90
42245;DHT22;27912;51.828;5.688;2023-04-02T08:00:20;4.40;99.90
42245;DHT22;27912;51.828;5.688;2023-04-02T08:02:46;4.40;99.90
42245;DHT22;27912;51.828;5.688;2023-04-02T08:05:12;4.40;99.90
42245;DHT22;27912;51.828;5.688;2023-04-02T08:07:38;4.30;99.90
42245;DHT22;27912;51.828;5.688;2023-04-02T08:10:04;4.40;99.90
42245;DHT22;27912;51.828;5.688;2023-04-02T08:12:30;4.40;99.90
42245;DHT22;27912;51.828;5.688;2023-04-02T08:14:56;4.50;99.90
42245;DHT22;27912;51.828;5.688;2023-04-02T08:17:22;4.50;99.90
42245;DHT22;27912;51.828;5.688;2023-04-02T08:19:47;4.60;99.90
42245;DHT22;27912;51.828;5.688;2023-04-02T08:22:13;4.70;99.90
42245;DHT22;27912;51.828;5.688;2023-04-02T08:24:38;4.70;99.90
42245;DHT22;27912;51.828;5.688;2023-04-02T08:27:04;4.80;99.90
42245;DHT22;27912;51.828;5.688;2023-04-02T08:29:30;4.80;99.90
42245;DHT22;27912;51.828;5.688;2023-04-02T08:32:00;4.80;99.90
42245;DHT22;27912;51.828;5.688;2023-04-02T08:34:27;4.80;99.90
42245;DHT22;27912;51.828;5.688;2023-04-02T08:36:56;4.80;99.90
42245;DHT22;27912;51.828;5.688;2023-04-02T08:39:24;4.70;99.90
42245;DHT22;27912;51.828;5.688;2023-04-02T08:47:57;4.60;99.90
42245;DHT22;27912;51.828;5.688;2023-04-02T08:50:31;4.60;99.90
42245;DHT22;27912;51.828;5.688;2023-04-02T08:52:59;4.70;99.90
42245;DHT22;27912;51.828;5.688;2023-04-02T09:01:05;4.80;99.90
42245;DHT22;27912;51.828;5.688;2023-04-02T09:03:41;4.80;99.90
42245;DHT22;27912;51.828;5.688;2023-04-02T09:06:12;4.90;99.90
42245;DHT22;27912;51.828;5.688;2023-04-02T09:08:39;4.90;99.90
42245;DHT22;27912;51.828;5.688;2023-04-02T09:11:18;4.90;99.90
42245;DHT22;27912;51.828;5.688;2023-04-02T09:13:47;4.90;99.90
42245;DHT22;27912;51.828;5.688;2023-04-02T09:16:17;4.90;99.90
42245;DHT22;27912;51.828;5.688;2023-04-02T09:18:46;4.90;99.90
42245;DHT22;27912;51.828;5.688;2023-04-02T09:21:32;5.00;99.90
42245;DHT22;27912;51.828;5.688;2023-04-02T09:23:59;4.90;99.90
42245;DHT22;27912;51.828;5.688;2023-04-02T09:26:28;5.00;99.90
42245;DHT22;27912;51.828;5.688;2023-04-02T09:29:30;5.00;99.90
42245;DHT22;27912;51.828;5.688;2023-04-02T09:32:16;5.10;99.90
42245;DHT22;27912;51.828;5.688;2023-04-02T09:34:44;5.20;99.90
42245;DHT22;27912;51.828;5.688;2023-04-02T09:37:20;5.20;99.90
42245;DHT22;27912;51.828;5.688;2023-04-02T09:39:49;5.30;99.90
42245;DHT22;27912;51.828;5.688;2023-04-02T09:42:32;5.30;99.90
42245;DHT22;27912;51.828;5.688;2023-04-02T09:45:22;5.30;99.90
42245;DHT22;27912;51.828;5.688;2023-04-02T09:47:49;5.40;99.90
42245;DHT22;27912;51.828;5.688;2023-04-02T09:50:31;5.50;99.90
42245;DHT22;27912;51.828;5.688;2023-04-02T09:52:58;5.50;99.90
42245;DHT22;27912;51.828;5.688;2023-04-02T09:55:41;5.40;99.90
42245;DHT22;27912;51.828;5.688;2023-04-02T09:58:15;5.40;99.90
42245;DHT22;27912;51.828;5.688;2023-04-02T10:00:50;5.40;99.90
42245;DHT22;27912;51.828;5.688;2023-04-02T10:03:28;5.40;99.90
42245;DHT22;27912;51.828;5.688;2023-04-02T10:06:10;5.50;99.90
42245;DHT22;27912;51.828;5.688;2023-04-02T10:08:38;5.60;99.90
42245;DHT22;27912;51.828;5.688;2023-04-02T10:11:11;5.70;99.90
42245;DHT22;27912;51.828;5.688;2023-04-02T10:16:31;5.80;99.90
42245;DHT22;27912;51.828;5.688;2023-04-02T10:21:39;6.00;99.90
42245;DHT22;27912;51.828;5.688;2023-04-02T10:24:13;6.10;99.90
42245;DHT22;27912;51.828;5.688;2023-04-02T10:27:02;6.20;99.90
42245;DHT22;27912;51.828;5.688;2023-04-02T10:40:48;6.50;99.90
42245;DHT22;27912;51.828;5.688;2023-04-02T10:46:06;6.40;99.90
42245;DHT22;27912;51.828;5.688;2023-04-02T10:51:43;6.20;99.90
42245;DHT22;27912;51.828;5.688;2023-04-02T10:57:03;6.20;99.90
42245;DHT22;27912;51.828;5.688;2023-04-02T10:59:32;6.20;99.90
42245;DHT22;27912;51.828;5.688;2023-04-02T11:02:20;6.30;99.90
42245;DHT22;27912;51.828;5.688;2023-04-02T11:04:47;6.30;99.90
42245;DHT22;27912;51.828;5.688;2023-04-02T11:07:17;6.20;99.90
42245;DHT22;27912;51.828;5.688;2023-04-02T11:09:47;6.10;99.90
42245;DHT22;27912;51.828;5.688;2023-04-02T11:12:21;5.90;99.90
42245;DHT22;27912;51.828;5.688;2023-04-02T11:14:48;5.80;99.90
42245;DHT22;27912;51.828;5.688;2023-04-02T11:17:17;5.70;99.90
42245;DHT22;27912;51.828;5.688;2023-04-02T11:19:43;5.80;99.90
42245;DHT22;27912;51.828;5.688;2023-04-02T11:22:21;5.90;99.90
42245;DHT22;27912;51.828;5.688;2023-04-02T11:27:19;6.10;99.90
42245;DHT22;27912;51.828;5.688;2023-04-02T11:30:17;6.30;99.90
42245;DHT22;27912;51.828;5.688;2023-04-02T11:32:40;6.40;99.90
42245;DHT22;27912;51.828;5.688;2023-04-02T11:40:50;7.10;99.90
42245;DHT22;27912;51.828;5.688;2023-04-02T11:48:42;7.70;99.90
42245;DHT22;27912;51.828;5.688;2023-04-02T11:53:51;7.80;99.90
42245;DHT22;27912;51.828;5.688;2023-04-02T11:56:31;7.60;99.90
42245;DHT22;27912;51.828;5.688;2023-04-02T11:59:03;7.60;99.90
42245;DHT22;27912;51.828;5.688;2023-04-02T12:01:55;7.60;99.90
42245;DHT22;27912;51.828;5.688;2023-04-02T12:04:40;7.80;99.90
42245;DHT22;27912;51.828;5.688;2023-04-02T12:09:57;8.10;99.90
42245;DHT22;27912;51.828;5.688;2023-04-02T12:12:27;8.10;99.90
42245;DHT22;27912;51.828;5.688;2023-04-02T12:14:58;8.10;99.90
42245;DHT22;27912;51.828;5.688;2023-04-02T12:17:35;8.10;99.90
42245;DHT22;27912;51.828;5.688;2023-04-02T12:22:40;8.00;99.90
42245;DHT22;27912;51.828;5.688;2023-04-02T12:28:23;7.90;99.90
42245;DHT22;27912;51.828;5.688;2023-04-02T12:33:32;8.10;99.90
42245;DHT22;27912;51.828;5.688;2023-04-02T12:36:06;8.20;99.90
42245;DHT22;27912;51.828;5.688;2023-04-02T12:41:26;8.40;99.90
42245;DHT22;27912;51.828;5.688;2023-04-02T12:44:17;8.40;99.90
42245;DHT22;27912;51.828;5.688;2023-04-02T12:46:45;8.40;99.90
42245;DHT22;27912;51.828;5.688;2023-04-02T12:49:39;8.50;99.90
42245;DHT22;27912;51.828;5.688;2023-04-02T12:52:11;8.50;99.90
42245;DHT22;27912;51.828;5.688;2023-04-02T12:54:56;8.60;99.90
42245;DHT22;27912;51.828;5.688;2023-04-02T13:00:25;8.70;99.90
42245;DHT22;27912;51.828;5.688;2023-04-02T13:03:14;8.80;99.90
42245;DHT22;27912;51.828;5.688;2023-04-02T13:05:46;8.90;99.90
42245;DHT22;27912;51.828;5.688;2023-04-02T13:08:19;8.90;99.90
42245;DHT22;27912;51.828;5.688;2023-04-02T13:10:52;9.00;99.90
42245;DHT22;27912;51.828;5.688;2023-04-02T13:13:25;9.00;99.90
42245;DHT22;27912;51.828;5.688;2023-04-02T13:16:23;9.00;99.90
42245;DHT22;27912;51.828;5.688;2023-04-02T13:18:50;9.10;99.90
42245;DHT22;27912;51.828;5.688;2023-04-02T13:23:41;9.10;99.90
42245;DHT22;27912;51.828;5.688;2023-04-02T13:26:26;9.10;99.90
42245;DHT22;27912;51.828;5.688;2023-04-02T13:29:12;9.10;99.90
42245;DHT22;27912;51.828;5.688;2023-04-02T13:31:39;9.10;99.90
42245;DHT22;27912;51.828;5.688;2023-04-02T13:34:05;9.10;99.90
42245;DHT22;27912;51.828;5.688;2023-04-02T13:36:31;9.00;99.90
42245;DHT22;27912;51.828;5.688;2023-04-02T13:38:56;9.10;99.90
42245;DHT22;27912;51.828;5.688;2023-04-02T13:41:26;9.10;99.90
42245;DHT22;27912;51.828;5.688;2023-04-02T13:43:53;9.20;99.90
42245;DHT22;27912;51.828;5.688;2023-04-02T13:46:25;9.20;99.90
42245;DHT22;27912;51.828;5.688;2023-04-02T13:48:52;9.20;99.90
42245;DHT22;27912;51.828;5.688;2023-04-02T13:52:01;9.30;99.90
42245;DHT22;27912;51.828;5.688;2023-04-02T13:56:58;9.40;99.40
42245;DHT22;27912;51.828;5.688;2023-04-02T13:59:24;9.30;98.80
42245;DHT22;27912;51.828;5.688;2023-04-02T14:01:55;9.30;99.20
42245;DHT22;27912;51.828;5.688;2023-04-02T14:04:27;9.30;98.80
42245;DHT22;27912;51.828;5.688;2023-04-02T14:10:00;9.30;98.00
42245;DHT22;27912;51.828;5.688;2023-04-02T14:15:47;9.30;98.30
42245;DHT22;27912;51.828;5.688;2023-04-02T14:18:23;9.40;98.50
42245;DHT22;27912;51.828;5.688;2023-04-02T14:21:01;9.50;98.80
42245;DHT22;27912;51.828;5.688;2023-04-02T14:26:08;9.50;98.10
42245;DHT22;27912;51.828;5.688;2023-04-02T14:35:07;9.60;96.80
42245;DHT22;27912;51.828;5.688;2023-04-02T14:37:48;9.80;97.40
42245;DHT22;27912;51.828;5.688;2023-04-02T14:43:15;9.90;97.70
42245;DHT22;27912;51.828;5.688;2023-04-02T14:46:13;10.00;97.20
42245;DHT22;27912;51.828;5.688;2023-04-02T14:48:54;10.10;96.90
42245;DHT22;27912;51.828;5.688;2023-04-02T14:56:43;9.90;95.30
42245;DHT22;27912;51.828;5.688;2023-04-02T14:59:14;10.00;95.00
42245;DHT22;27912;51.828;5.688;2023-04-02T15:01:46;10.00;94.70
42245;DHT22;27912;51.828;5.688;2023-04-02T15:04:36;10.00;94.60
42245;DHT22;27912;51.828;5.688;2023-04-02T15:07:24;10.00;94.70
42245;DHT22;27912;51.828;5.688;2023-04-02T15:12:35;10.20;96.00
42245;DHT22;27912;51.828;5.688;2023-04-02T15:15:27;10.40;96.10
42245;DHT22;27912;51.828;5.688;2023-04-02T15:17:58;10.60;96.40
42245;DHT22;27912;51.828;5.688;2023-04-02T15:20:32;10.70;95.90
42245;DHT22;27912;51.828;5.688;2023-04-02T15:26:23;10.70;96.00
42245;DHT22;27912;51.828;5.688;2023-04-02T15:29:45;10.60;94.70
42245;DHT22;27912;51.828;5.688;2023-04-02T15:31:45;10.50;95.10
42245;DHT22;27912;51.828;5.688;2023-04-02T15:34:22;10.50;95.30
42245;DHT22;27912;51.828;5.688;2023-04-02T15:37:07;10.60;96.00
42245;DHT22;27912;51.828;5.688;2023-04-02T15:42:25;10.60;94.20
42245;DHT22;27912;51.828;5.688;2023-04-02T15:45:11;10.60;94.60
42245;DHT22;27912;51.828;5.688;2023-04-02T15:47:58;10.50;94.50
42245;DHT22;27912;51.828;5.688;2023-04-02T15:50:53;10.50;94.90
42245;DHT22;27912;51.828;5.688;2023-04-02T15:54:02;10.50;94.20
42245;DHT22;27912;51.828;5.688;2023-04-02T15:56:57;10.40;94.40
42245;DHT22;27912;51.828;5.688;2023-04-02T16:02:24;10.10;94.30
42245;DHT22;27912;51.828;5.688;2023-04-02T16:10:23;9.80;94.70
42245;DHT22;27912;51.828;5.688;2023-04-02T16:12:51;9.70;95.60
42245;DHT22;27912;51.828;5.688;2023-04-02T16:15:27;9.70;96.10
42245;DHT22;27912;51.828;5.688;2023-04-02T16:18:07;9.70;96.50
42245;DHT22;27912;51.828;5.688;2023-04-02T16:20:38;9.70;96.50
42245;DHT22;27912;51.828;5.688;2023-04-02T16:23:10;9.70;96.60
42245;DHT22;27912;51.828;5.688;2023-04-02T16:25:47;9.70;96.50
42245;DHT22;27912;51.828;5.688;2023-04-02T16:28:26;9.60;96.40
42245;DHT22;27912;51.828;5.688;2023-04-02T16:31:13;9.60;96.50
42245;DHT22;27912;51.828;5.688;2023-04-02T16:34:05;9.50;96.80
42245;DHT22;27912;51.828;5.688;2023-04-02T16:48:02;9.40;97.80
42245;DHT22;27912;51.828;5.688;2023-04-02T16:50:46;9.40;97.70
42245;DHT22;27912;51.828;5.688;2023-04-02T16:55:56;9.30;97.30
42245;DHT22;27912;51.828;5.688;2023-04-02T16:59:01;9.40;97.30
42245;DHT22;27912;51.828;5.688;2023-04-02T17:09:42;9.40;95.70
42245;DHT22;27912;51.828;5.688;2023-04-02T17:12:36;9.30;96.00
42245;DHT22;27912;51.828;5.688;2023-04-02T17:15:14;9.30;95.80
42245;DHT22;27912;51.828;5.688;2023-04-02T17:17:42;9.20;96.10
42245;DHT22;27912;51.828;5.688;2023-04-02T17:20:17;9.20;96.30
42245;DHT22;27912;51.828;5.688;2023-04-02T17:22:45;9.10;96.60
42245;DHT22;27912;51.828;5.688;2023-04-02T17:25:24;9.10;96.80
42245;DHT22;27912;51.828;5.688;2023-04-02T17:27:55;9.00;96.70
42245;DHT22;27912;51.828;5.688;2023-04-02T17:30:40;8.90;97.00
42245;DHT22;27912;51.828;5.688;2023-04-02T17:33:11;8.80;97.20
42245;DHT22;27912;51.828;5.688;2023-04-02T17:35:58;8.70;97.60
42245;DHT22;27912;51.828;5.688;2023-04-02T17:38:33;8.60;97.90
42245;DHT22;27912;51.828;5.688;2023-04-02T17:41:35;8.50;98.20
42245;DHT22;27912;51.828;5.688;2023-04-02T17:52:50;8.20;99.70
42245;DHT22;27912;51.828;5.688;2023-04-02T17:58:20;8.00;99.90
42245;DHT22;27912;51.828;5.688;2023-04-02T18:09:06;7.70;99.90
42245;DHT22;27912;51.828;5.688;2023-04-02T18:23:38;7.30;99.90
42245;DHT22;27912;51.828;5.688;2023-04-02T18:26:21;7.20;99.90
42245;DHT22;27912;51.828;5.688;2023-04-02T18:31:54;7.00;99.90
42245;DHT22;27912;51.828;5.688;2023-04-02T18:37:37;6.70;99.90
42245;DHT22;27912;51.828;5.688;2023-04-02T18:43:07;6.50;99.90
42245;DHT22;27912;51.828;5.688;2023-04-02T18:50:45;6.20;99.90
42245;DHT22;27912;51.828;5.688;2023-04-02T18:53:14;6.10;99.90
42245;DHT22;27912;51.828;5.688;2023-04-02T18:55:49;6.00;99.90
42245;DHT22;27912;51.828;5.688;2023-04-02T18:58:24;5.90;99.90
42245;DHT22;27912;51.828;5.688;2023-04-02T19:00:49;5.90;99.90
42245;DHT22;27912;51.828;5.688;2023-04-02T19:03:28;5.80;99.90
42245;DHT22;27912;51.828;5.688;2023-04-02T19:06:12;5.70;99.90
42245;DHT22;27912;51.828;5.688;2023-04-02T19:08:54;5.70;99.90
42245;DHT22;27912;51.828;5.688;2023-04-02T19:11:22;5.60;99.90
42245;DHT22;27912;51.828;5.688;2023-04-02T19:13:54;5.50;99.90
42245;DHT22;27912;51.828;5.688;2023-04-02T19:16:32;5.40;99.90
42245;DHT22;27912;51.828;5.688;2023-04-02T19:19:16;5.30;99.90
42245;DHT22;27912;51.828;5.688;2023-04-02T19:22:11;5.30;99.90
42245;DHT22;27912;51.828;5.688;2023-04-02T19:27:49;5.20;99.90
42245;DHT22;27912;51.828;5.688;2023-04-02T19:33:33;5.00;99.90
42245;DHT22;27912;51.828;5.688;2023-04-02T19:36:32;4.90;99.90
42245;DHT22;27912;51.828;5.688;2023-04-02T19:41:54;4.90;99.90
42245;DHT22;27912;51.828;5.688;2023-04-02T19:44:22;4.90;99.90
42245;DHT22;27912;51.828;5.688;2023-04-02T19:46:48;4.90;99.90
42245;DHT22;27912;51.828;5.688;2023-04-02T19:49:32;4.90;99.90
42245;DHT22;27912;51.828;5.688;2023-04-02T19:51:58;4.80;99.90
42245;DHT22;27912;51.828;5.688;2023-04-02T19:54:24;4.80;99.90
42245;DHT22;27912;51.828;5.688;2023-04-02T19:56:50;4.90;99.90
42245;DHT22;27912;51.828;5.688;2023-04-02T19:59:16;4.90;99.90
42245;DHT22;27912;51.828;5.688;2023-04-02T20:01:41;5.00;99.90
42245;DHT22;27912;51.828;5.688;2023-04-02T20:04:07;5.00;99.90
42245;DHT22;27912;51.828;5.688;2023-04-02T20:06:32;5.00;99.90
42245;DHT22;27912;51.828;5.688;2023-04-02T20:08:58;5.00;99.90
42245;DHT22;27912;51.828;5.688;2023-04-02T20:11:25;5.00;99.90
42245;DHT22;27912;51.828;5.688;2023-04-02T20:13:52;5.00;99.90
42245;DHT22;27912;51.828;5.688;2023-04-02T20:16:18;4.90;99.90
42245;DHT22;27912;51.828;5.688;2023-04-02T20:18:44;5.00;99.90
42245;DHT22;27912;51.828;5.688;2023-04-02T20:21:10;5.00;99.90
42245;DHT22;27912;51.828;5.688;2023-04-02T20:23:36;5.00;99.90
42245;DHT22;27912;51.828;5.688;2023-04-02T20:26:02;5.00;99.90
42245;DHT22;27912;51.828;5.688;2023-04-02T20:28:28;5.00;99.90
42245;DHT22;27912;51.828;5.688;2023-04-02T20:31:05;5.00;99.90
42245;DHT22;27912;51.828;5.688;2023-04-02T20:33:31;5.00;99.90
42245;DHT22;27912;51.828;5.688;2023-04-02T20:36:02;5.00;99.90
42245;DHT22;27912;51.828;5.688;2023-04-02T20:38:28;5.00;99.90
42245;DHT22;27912;51.828;5.688;2023-04-02T20:40:54;4.90;99.90